createdAt,value
2023-01-26T00:00:21.066Z,84.50
2023-01-26T00:01:23.968Z,84.04
2023-01-26T00:02:25.859Z,84.78
2023-01-26T00:03:28.112Z,84.70
2023-01-26T00:04:30.060Z,83.34
2023-01-26T00:05:31.925Z,83.54
2023-01-26T00:06:33.712Z,83.19
2023-01-26T00:07:35.457Z,83.66
2023-01-26T00:08:41.189Z,83.37
2023-01-26T00:09:43.508Z,82.77
2023-01-26T00:10:50.469Z,83.62
2023-01-26T00:11:52.243Z,82.77
2023-01-26T00:12:54.063Z,83.27
2023-01-26T00:14:00.206Z,83.28
2023-01-26T00:15:02.047Z,83.77
2023-01-26T00:16:04.026Z,83.34
2023-01-26T00:17:05.838Z,83.17
2023-01-26T00:18:07.612Z,83.13
2023-01-26T00:19:09.456Z,83.53
2023-01-26T00:20:11.731Z,83.29
2023-01-26T00:21:15.521Z,83.06
2023-01-26T00:22:17.285Z,83.21
2023-01-26T00:23:19.020Z,83.59
2023-01-26T00:24:20.880Z,83.72
2023-01-26T00:25:22.916Z,83.05
2023-01-26T00:26:25.761Z,83.31
2023-01-26T00:27:27.655Z,83.14
2023-01-26T00:28:29.688Z,83.78
2023-01-26T00:29:31.524Z,83.29
2023-01-26T00:30:33.533Z,83.68
2023-01-26T00:31:35.500Z,83.85
2023-01-26T00:32:37.942Z,83.33
2023-01-26T00:33:39.715Z,83.81
2023-01-26T00:34:41.544Z,83.42
2023-01-26T00:35:44.810Z,83.86
2023-01-26T00:36:46.625Z,83.37
2023-01-26T00:37:48.447Z,83.33
2023-01-26T00:38:50.296Z,83.54
2023-01-26T00:39:52.047Z,83.63
2023-01-26T00:40:54.277Z,83.64
2023-01-26T00:42:10.295Z,82.95
2023-01-26T00:43:12.195Z,83.69
2023-01-26T00:44:14.042Z,83.54
2023-01-26T00:45:16.001Z,83.39
2023-01-26T00:46:17.811Z,83.03
2023-01-26T00:47:19.927Z,82.98
2023-01-26T00:48:24.467Z,82.74
2023-01-26T00:49:26.616Z,83.00
2023-01-26T00:50:28.440Z,83.15
2023-01-26T00:51:30.189Z,82.60
2023-01-26T00:52:32.230Z,82.70
2023-01-26T00:53:34.013Z,82.43
2023-01-26T00:54:35.675Z,82.78
2023-01-26T00:55:37.559Z,82.63
2023-01-26T00:56:39.359Z,82.76
2023-01-26T00:57:41.330Z,82.62
2023-01-26T00:58:45.186Z,82.57
2023-01-26T00:59:46.948Z,81.91
2023-01-26T01:00:48.792Z,81.62
2023-01-26T01:01:51.023Z,82.31
2023-01-26T01:02:53.011Z,81.34
2023-01-26T01:03:54.860Z,81.23
2023-01-26T01:04:56.723Z,81.30
2023-01-26T01:05:58.481Z,81.83
2023-01-26T01:07:00.392Z,81.59
2023-01-26T01:08:02.658Z,80.66
2023-01-26T01:09:04.569Z,80.84
2023-01-26T01:10:06.530Z,80.65
2023-01-26T01:11:10.080Z,80.87
2023-01-26T01:12:11.948Z,81.28
2023-01-26T01:13:13.786Z,80.33
2023-01-26T01:14:16.295Z,81.03
2023-01-26T01:15:18.128Z,80.99
2023-01-26T01:16:20.153Z,81.14
2023-01-26T01:17:22.011Z,80.73
2023-01-26T01:18:23.801Z,81.24
2023-01-26T01:19:25.604Z,81.28
2023-01-26T01:20:27.388Z,80.85
2023-01-26T01:21:29.277Z,79.82
2023-01-26T01:22:31.117Z,80.48
2023-01-26T01:23:32.956Z,80.09
2023-01-26T01:24:35.580Z,80.11
2023-01-26T01:25:37.376Z,81.11
2023-01-26T01:26:39.694Z,80.54
2023-01-26T01:27:41.544Z,80.66
2023-01-26T01:28:44.078Z,80.77
2023-01-26T01:29:45.877Z,81.32
2023-01-26T01:30:47.719Z,80.90
2023-01-26T01:31:49.548Z,81.47
2023-01-26T01:32:52.503Z,81.42
2023-01-26T01:33:54.580Z,81.91
2023-01-26T01:34:56.356Z,81.27
2023-01-26T01:35:59.224Z,80.87
2023-01-26T01:37:01.042Z,80.87
2023-01-26T01:38:02.934Z,80.82
2023-01-26T01:39:04.840Z,82.03
2023-01-26T01:40:06.933Z,81.91
2023-01-26T01:41:08.998Z,81.38
2023-01-26T01:42:10.778Z,81.23
2023-01-26T01:43:12.755Z,81.96
2023-01-26T01:44:16.587Z,81.06
2023-01-26T01:45:27.287Z,81.53
2023-01-26T01:46:37.422Z,81.46
2023-01-26T01:47:39.371Z,80.44
2023-01-26T01:48:44.110Z,80.44
2023-01-26T01:49:45.987Z,81.51
2023-01-26T01:50:49.514Z,81.04
2023-01-26T01:51:54.767Z,81.61
2023-01-26T01:52:56.711Z,81.44
2023-01-26T01:54:00.120Z,81.65
2023-01-26T01:55:09.294Z,82.07
2023-01-26T01:56:13.738Z,81.45
2023-01-26T01:57:17.880Z,81.22
2023-01-26T01:58:19.969Z,81.81
2023-01-26T01:59:22.617Z,80.99
2023-01-26T02:00:24.644Z,80.93
2023-01-26T02:01:26.663Z,81.23
2023-01-26T02:02:29.001Z,81.17
2023-01-26T02:03:32.390Z,81.15
2023-01-26T02:04:34.183Z,81.25
2023-01-26T02:05:39.349Z,80.76
2023-01-26T02:06:49.499Z,81.39
2023-01-26T02:07:51.970Z,81.22
2023-01-26T02:08:54.924Z,80.99
2023-01-26T02:10:15.563Z,81.12
2023-01-26T02:11:19.947Z,81.00
2023-01-26T02:12:24.172Z,80.34
2023-01-26T02:13:26.742Z,80.66
2023-01-26T02:14:29.273Z,80.23
2023-01-26T02:15:31.230Z,80.83
2023-01-26T02:16:33.122Z,80.98
2023-01-26T02:17:35.000Z,81.33
2023-01-26T02:18:36.907Z,80.77
2023-01-26T02:19:51.677Z,81.05
2023-01-26T02:20:55.675Z,81.32
2023-01-26T02:22:00.589Z,80.71
2023-01-26T02:23:05.059Z,80.15
2023-01-26T02:24:21.687Z,80.29
2023-01-26T02:25:49.535Z,80.85
2023-01-26T02:26:52.133Z,81.19
2023-01-26T02:27:53.936Z,81.04
2023-01-26T02:28:55.833Z,80.72
2023-01-26T02:29:58.914Z,80.56
2023-01-26T02:31:01.214Z,80.03
2023-01-26T02:32:03.016Z,79.76
2023-01-26T02:33:04.935Z,79.29
2023-01-26T02:34:06.730Z,80.07
2023-01-26T02:35:08.802Z,80.08
2023-01-26T02:36:30.378Z,79.93
2023-01-26T02:37:32.195Z,79.72
2023-01-26T02:38:44.432Z,80.51
2023-01-26T02:40:21.665Z,80.79
2023-01-26T02:41:41.908Z,79.80
2023-01-26T02:42:44.661Z,80.26
2023-01-26T02:43:46.571Z,79.96
2023-01-26T02:44:48.534Z,79.19
2023-01-26T02:45:50.443Z,79.39
2023-01-26T02:46:53.305Z,80.15
2023-01-26T02:47:55.157Z,79.30
2023-01-26T02:49:15.891Z,79.15
2023-01-26T02:50:17.889Z,78.92
2023-01-26T02:51:19.714Z,78.60
2023-01-26T02:52:22.689Z,79.16
2023-01-26T02:53:24.517Z,78.81
2023-01-26T02:54:44.980Z,80.07
2023-01-26T02:55:46.761Z,79.95
2023-01-26T02:56:48.500Z,80.72
2023-01-26T02:57:51.585Z,80.00
2023-01-26T02:58:53.495Z,79.28
2023-01-26T02:59:55.296Z,80.13
2023-01-26T03:00:57.184Z,79.64
2023-01-26T03:01:59.326Z,79.14
2023-01-26T03:03:02.397Z,79.60
2023-01-26T03:04:04.329Z,79.19
2023-01-26T03:05:06.370Z,79.42
2023-01-26T03:06:11.762Z,79.86
2023-01-26T03:07:13.498Z,79.27
2023-01-26T03:08:15.318Z,79.77
2023-01-26T03:09:17.206Z,79.81
2023-01-26T03:10:19.323Z,79.75
2023-01-26T03:11:21.106Z,79.83
2023-01-26T03:12:22.855Z,79.56
2023-01-26T03:13:24.695Z,79.44
2023-01-26T03:14:26.454Z,79.65
2023-01-26T03:15:43.662Z,79.24
2023-01-26T03:16:45.569Z,79.72
2023-01-26T03:17:47.345Z,79.80
2023-01-26T03:19:04.002Z,79.62
2023-01-26T03:20:25.193Z,79.10
2023-01-26T03:21:45.301Z,79.18
2023-01-26T03:23:05.484Z,79.32
2023-01-26T03:24:29.782Z,80.12
2023-01-26T03:25:49.827Z,79.26
2023-01-26T03:27:10.109Z,79.30
2023-01-26T03:28:14.160Z,79.98
2023-01-26T03:29:15.968Z,80.11
2023-01-26T03:30:18.848Z,79.87
2023-01-26T03:31:20.716Z,80.59
2023-01-26T03:32:22.642Z,80.20
2023-01-26T03:33:24.502Z,81.03
2023-01-26T03:34:26.527Z,80.36
2023-01-26T03:35:28.311Z,80.70
2023-01-26T03:36:30.052Z,81.30
2023-01-26T03:37:37.054Z,81.44
2023-01-26T03:38:38.882Z,81.12
2023-01-26T03:39:59.229Z,81.79
2023-01-26T03:41:19.263Z,81.50
2023-01-26T03:42:39.489Z,81.70
2023-01-26T03:43:59.712Z,81.41
2023-01-26T03:45:20.012Z,82.01
2023-01-26T03:46:40.045Z,82.32
2023-01-26T03:48:00.318Z,81.37
2023-01-26T03:49:20.400Z,82.30
2023-01-26T03:50:40.940Z,82.28
2023-01-26T03:52:01.106Z,82.37
2023-01-26T03:53:21.294Z,82.19
2023-01-26T03:54:41.542Z,82.54
2023-01-26T03:56:01.684Z,81.54
2023-01-26T03:57:03.613Z,81.79
2023-01-26T03:58:05.390Z,82.00
2023-01-26T03:59:11.475Z,81.87
2023-01-26T04:00:15.376Z,81.66
2023-01-26T04:01:21.973Z,81.81
2023-01-26T04:02:42.688Z,82.00
2023-01-26T04:04:03.040Z,81.94
2023-01-26T04:05:23.710Z,82.27
2023-01-26T04:06:44.458Z,82.43
2023-01-26T04:08:04.771Z,82.10
2023-01-26T04:09:06.567Z,81.63
2023-01-26T04:10:08.858Z,81.83
2023-01-26T04:11:10.700Z,81.81
2023-01-26T04:12:13.871Z,82.61
2023-01-26T04:13:34.296Z,82.17
2023-01-26T04:14:54.484Z,82.42
2023-01-26T04:16:14.759Z,82.32
2023-01-26T04:17:34.995Z,82.25
2023-01-26T04:18:55.236Z,82.39
2023-01-26T04:20:15.410Z,82.37
2023-01-26T04:21:34.565Z,81.88
2023-01-26T04:22:40.755Z,82.27
2023-01-26T04:23:42.518Z,81.79
2023-01-26T04:24:44.226Z,81.83
2023-01-26T04:25:47.062Z,81.52
2023-01-26T04:26:49.111Z,82.30
2023-01-26T04:27:50.945Z,82.37
2023-01-26T04:28:52.934Z,82.43
2023-01-26T04:29:54.799Z,82.04
2023-01-26T04:30:56.666Z,82.10
2023-01-26T04:31:58.561Z,82.36
2023-01-26T04:33:00.322Z,82.15
2023-01-26T04:34:02.774Z,82.14
2023-01-26T04:35:05.519Z,82.36
2023-01-26T04:36:08.870Z,81.96
2023-01-26T04:37:10.712Z,82.89
2023-01-26T04:38:12.509Z,82.14
2023-01-26T04:39:14.359Z,81.52
2023-01-26T04:40:16.210Z,81.61
2023-01-26T04:41:18.183Z,81.76
2023-01-26T04:42:20.094Z,82.00
2023-01-26T04:43:21.888Z,81.62
2023-01-26T04:44:23.946Z,82.50
2023-01-26T04:45:25.877Z,81.98
2023-01-26T04:46:27.988Z,81.90
2023-01-26T04:47:29.922Z,81.71
2023-01-26T04:48:31.892Z,82.38
2023-01-26T04:49:33.724Z,82.75
2023-01-26T04:50:35.538Z,82.25
2023-01-26T04:51:37.443Z,81.86
2023-01-26T04:52:39.250Z,81.98
2023-01-26T04:53:41.064Z,82.13
2023-01-26T04:54:42.924Z,82.39
2023-01-26T04:55:44.699Z,82.48
2023-01-26T04:56:46.543Z,82.36
2023-01-26T04:57:48.333Z,81.93
2023-01-26T04:58:50.225Z,81.70
2023-01-26T04:59:52.086Z,81.96
2023-01-26T05:00:55.286Z,81.37
2023-01-26T05:01:57.160Z,81.42
2023-01-26T05:02:58.916Z,81.31
2023-01-26T05:04:01.993Z,81.44
2023-01-26T05:05:03.943Z,81.42
2023-01-26T05:06:05.823Z,81.96
2023-01-26T05:07:07.653Z,81.36
2023-01-26T05:08:09.447Z,81.78
2023-01-26T05:09:11.667Z,82.15
2023-01-26T05:10:15.761Z,82.21
2023-01-26T05:11:17.790Z,81.54
2023-01-26T05:12:34.712Z,82.13
2023-01-26T05:13:37.482Z,81.53
2023-01-26T05:14:39.298Z,81.38
2023-01-26T05:15:41.234Z,81.46
2023-01-26T05:16:43.081Z,81.51
2023-01-26T05:17:45.299Z,81.98
2023-01-26T05:18:47.098Z,81.04
2023-01-26T05:19:48.952Z,81.59
2023-01-26T05:20:50.756Z,81.44
2023-01-26T05:21:52.529Z,81.31
2023-01-26T05:22:54.489Z,81.71
2023-01-26T05:23:56.404Z,80.85
2023-01-26T05:24:58.211Z,81.65
2023-01-26T05:26:00.004Z,81.27
2023-01-26T05:27:20.100Z,81.56
2023-01-26T05:28:22.034Z,81.13
2023-01-26T05:29:23.943Z,81.33
2023-01-26T05:30:25.829Z,80.64
2023-01-26T05:31:27.727Z,80.81
2023-01-26T05:32:30.583Z,81.49
2023-01-26T05:33:32.551Z,80.63
2023-01-26T05:34:34.343Z,81.03
2023-01-26T05:35:36.508Z,81.45
2023-01-26T05:36:38.320Z,81.33
2023-01-26T05:37:42.340Z,81.34
2023-01-26T05:38:44.428Z,80.41
2023-01-26T05:39:46.380Z,80.05
2023-01-26T05:40:48.267Z,79.86
2023-01-26T05:41:50.037Z,80.46
2023-01-26T05:42:52.339Z,80.63
2023-01-26T05:43:54.170Z,79.66
2023-01-26T05:44:56.165Z,79.45
2023-01-26T05:45:58.247Z,79.38
2023-01-26T05:47:00.067Z,79.52
2023-01-26T05:48:02.026Z,80.33
2023-01-26T05:49:03.977Z,79.87
2023-01-26T05:50:06.117Z,79.96
2023-01-26T05:51:07.926Z,80.18
2023-01-26T05:52:13.514Z,80.27
2023-01-26T05:53:15.496Z,80.41
2023-01-26T05:54:17.406Z,80.20
2023-01-26T05:55:19.222Z,80.38
2023-01-26T05:56:21.059Z,79.99
2023-01-26T05:57:22.937Z,80.46
2023-01-26T05:58:24.734Z,79.97
2023-01-26T05:59:26.587Z,79.73
2023-01-26T06:00:28.351Z,80.46
2023-01-26T06:01:30.153Z,80.54
2023-01-26T06:02:32.036Z,80.31
2023-01-26T06:03:33.913Z,79.73
2023-01-26T06:04:35.764Z,80.51
2023-01-26T06:05:39.042Z,79.75
2023-01-26T06:06:41.022Z,79.69
2023-01-26T06:07:42.932Z,79.62
2023-01-26T06:08:44.714Z,79.28
2023-01-26T06:09:46.677Z,79.77
2023-01-26T06:10:48.420Z,80.23
2023-01-26T06:11:50.277Z,79.61
2023-01-26T06:12:52.006Z,79.54
2023-01-26T06:13:53.809Z,79.93
2023-01-26T06:14:55.672Z,80.59
2023-01-26T06:16:00.496Z,80.38
2023-01-26T06:17:02.365Z,79.95
2023-01-26T06:18:04.311Z,79.68
2023-01-26T06:19:06.168Z,79.44
2023-01-26T06:20:08.680Z,79.59
2023-01-26T06:21:10.498Z,79.05
2023-01-26T06:22:13.300Z,78.86
2023-01-26T06:23:15.058Z,78.98
2023-01-26T06:24:16.991Z,79.43
2023-01-26T06:25:18.895Z,79.74
2023-01-26T06:26:20.851Z,79.75
2023-01-26T06:27:22.746Z,79.30
2023-01-26T06:28:24.588Z,79.51
2023-01-26T06:29:26.483Z,80.13
2023-01-26T06:30:28.430Z,80.29
2023-01-26T06:31:30.496Z,79.80
2023-01-26T06:32:32.348Z,79.63
2023-01-26T06:33:35.628Z,80.18
2023-01-26T06:34:37.603Z,80.29
2023-01-26T06:35:39.367Z,80.75
2023-01-26T06:36:41.817Z,80.98
2023-01-26T06:37:43.641Z,81.05
2023-01-26T06:38:46.791Z,81.03
2023-01-26T06:39:48.587Z,80.50
2023-01-26T06:40:51.746Z,80.68
2023-01-26T06:41:53.568Z,80.14
2023-01-26T06:42:55.428Z,80.53
2023-01-26T06:43:57.145Z,80.57
2023-01-26T06:44:59.244Z,81.10
2023-01-26T06:46:01.649Z,80.67
2023-01-26T06:47:03.587Z,80.88
2023-01-26T06:48:05.457Z,80.98
2023-01-26T06:49:07.370Z,80.97
2023-01-26T06:50:09.858Z,80.53
2023-01-26T06:51:20.829Z,80.48
2023-01-26T06:52:25.969Z,81.41
2023-01-26T06:53:34.402Z,80.96
2023-01-26T06:54:36.179Z,80.44
2023-01-26T06:55:39.198Z,80.36
2023-01-26T06:56:41.069Z,80.29
2023-01-26T06:57:42.955Z,80.34
2023-01-26T06:58:44.846Z,80.25
2023-01-26T06:59:46.667Z,80.55
2023-01-26T07:00:48.582Z,80.77
2023-01-26T07:01:50.439Z,80.21
2023-01-26T07:02:52.242Z,79.76
2023-01-26T07:03:55.442Z,79.79
2023-01-26T07:04:57.812Z,80.03
2023-01-26T07:05:59.555Z,80.32
2023-01-26T07:07:01.425Z,80.51
2023-01-26T07:08:04.586Z,80.25
2023-01-26T07:09:06.619Z,80.06
2023-01-26T07:10:08.980Z,80.44
2023-01-26T07:11:11.620Z,81.12
2023-01-26T07:12:13.456Z,80.23
2023-01-26T07:13:15.400Z,79.84
2023-01-26T07:14:17.235Z,80.88
2023-01-26T07:15:19.061Z,79.89
2023-01-26T07:16:20.931Z,79.89
2023-01-26T07:17:22.672Z,80.93
2023-01-26T07:18:24.525Z,81.06
2023-01-26T07:19:26.469Z,80.10
2023-01-26T07:20:28.544Z,80.35
2023-01-26T07:21:30.465Z,80.67
2023-01-26T07:22:32.349Z,80.81
2023-01-26T07:23:35.147Z,80.12
2023-01-26T07:24:37.093Z,79.74
2023-01-26T07:25:38.938Z,80.59
2023-01-26T07:26:40.675Z,79.84
2023-01-26T07:27:42.447Z,80.41
2023-01-26T07:28:44.322Z,79.63
2023-01-26T07:29:46.990Z,80.43
2023-01-26T07:30:49.368Z,79.80
2023-01-26T07:31:51.398Z,80.26
2023-01-26T07:32:53.205Z,79.81
2023-01-26T07:33:55.022Z,80.42
2023-01-26T07:34:56.814Z,80.02
2023-01-26T07:35:59.004Z,79.73
2023-01-26T07:37:00.816Z,79.95
2023-01-26T07:38:05.831Z,79.11
2023-01-26T07:39:08.609Z,79.07
2023-01-26T07:40:11.491Z,79.81
2023-01-26T07:41:13.597Z,80.53
2023-01-26T07:42:15.646Z,80.29
2023-01-26T07:43:17.397Z,80.33
2023-01-26T07:44:19.191Z,79.56
2023-01-26T07:45:21.089Z,79.80
2023-01-26T07:46:24.056Z,79.40
2023-01-26T07:47:25.991Z,80.35
2023-01-26T07:48:30.099Z,79.73
2023-01-26T07:49:32.167Z,79.94
2023-01-26T07:50:33.917Z,79.51
2023-01-26T07:51:35.779Z,79.88
2023-01-26T07:52:38.548Z,79.33
2023-01-26T07:53:41.432Z,79.30
2023-01-26T07:54:43.203Z,79.24
2023-01-26T07:55:45.543Z,79.04
2023-01-26T07:56:47.875Z,78.96
2023-01-26T07:57:49.794Z,79.10
2023-01-26T07:58:55.122Z,79.08
2023-01-26T07:59:56.944Z,79.33
2023-01-26T08:01:24.964Z,78.93
2023-01-26T08:02:26.892Z,79.44
2023-01-26T08:03:28.721Z,79.32
2023-01-26T08:04:30.582Z,78.54
2023-01-26T08:05:32.977Z,78.86
2023-01-26T08:06:34.986Z,78.86
2023-01-26T08:07:37.056Z,79.03
2023-01-26T08:08:41.642Z,79.43
2023-01-26T08:09:43.492Z,78.13
2023-01-26T08:10:45.272Z,78.07
2023-01-26T08:11:47.098Z,78.53
2023-01-26T08:12:49.122Z,78.08
2023-01-26T08:13:50.984Z,78.45
2023-01-26T08:14:52.976Z,79.22
2023-01-26T08:15:55.282Z,78.97
2023-01-26T08:16:57.128Z,78.94
2023-01-26T08:17:59.456Z,79.15
2023-01-26T08:19:01.368Z,78.58
2023-01-26T08:20:03.954Z,79.47
2023-01-26T08:21:05.761Z,78.32
2023-01-26T08:22:07.552Z,79.29
2023-01-26T08:23:09.440Z,78.79
2023-01-26T08:24:12.016Z,79.31
2023-01-26T08:25:13.790Z,78.94
2023-01-26T08:26:15.618Z,78.37
2023-01-26T08:27:17.724Z,79.36
2023-01-26T08:28:21.206Z,79.25
2023-01-26T08:29:23.168Z,79.09
2023-01-26T08:30:24.924Z,78.75
2023-01-26T08:31:28.509Z,78.66
2023-01-26T08:32:30.992Z,78.93
2023-01-26T08:33:33.333Z,78.69
2023-01-26T08:34:35.438Z,78.59
2023-01-26T08:35:37.285Z,78.88
2023-01-26T08:36:39.695Z,79.22
2023-01-26T08:37:41.593Z,78.37
2023-01-26T08:38:44.100Z,79.08
2023-01-26T08:39:45.899Z,78.59
2023-01-26T08:40:51.653Z,78.54
2023-01-26T08:41:53.408Z,78.97
2023-01-26T08:42:55.734Z,78.45
2023-01-26T08:43:59.658Z,79.23
2023-01-26T08:45:01.661Z,79.21
2023-01-26T08:46:03.642Z,78.33
2023-01-26T08:47:05.472Z,79.30
2023-01-26T08:48:07.275Z,78.40
2023-01-26T08:49:09.628Z,78.07
2023-01-26T08:50:12.073Z,78.12
2023-01-26T08:51:14.322Z,78.95
2023-01-26T08:52:16.972Z,77.25
2023-01-26T08:53:18.774Z,78.26
2023-01-26T08:54:20.643Z,77.58
2023-01-26T08:55:22.472Z,77.63
2023-01-26T08:56:24.300Z,78.53
2023-01-26T08:57:26.491Z,77.83
2023-01-26T08:58:29.246Z,77.74
2023-01-26T08:59:31.038Z,77.25
2023-01-26T09:00:33.634Z,78.26
2023-01-26T09:01:35.468Z,77.89
2023-01-26T09:02:37.313Z,78.01
2023-01-26T09:03:39.822Z,78.38
2023-01-26T09:04:41.719Z,77.53
2023-01-26T09:05:43.709Z,77.79
2023-01-26T09:06:45.613Z,77.38
2023-01-26T09:07:47.518Z,77.26
2023-01-26T09:08:49.376Z,76.66
2023-01-26T09:09:51.117Z,77.21
2023-01-26T09:10:52.899Z,77.37
2023-01-26T09:11:58.261Z,77.47
2023-01-26T09:13:00.670Z,77.63
2023-01-26T09:14:02.544Z,78.63
2023-01-26T09:15:04.541Z,77.86
2023-01-26T09:16:07.723Z,77.27
2023-01-26T09:17:09.647Z,77.89
2023-01-26T09:18:12.035Z,77.70
2023-01-26T09:19:13.899Z,77.88
2023-01-26T09:20:16.071Z,77.48
2023-01-26T09:21:18.329Z,78.42
2023-01-26T09:22:20.250Z,78.16
2023-01-26T09:23:22.055Z,78.35
2023-01-26T09:24:23.958Z,77.89
2023-01-26T09:25:25.786Z,77.85
2023-01-26T09:26:27.538Z,77.74
2023-01-26T09:27:29.467Z,78.14
2023-01-26T09:28:31.310Z,78.72
2023-01-26T09:29:33.181Z,78.29
2023-01-26T09:30:35.115Z,78.36
2023-01-26T09:31:37.047Z,77.54
2023-01-26T09:32:39.112Z,78.04
2023-01-26T09:33:40.900Z,77.55
2023-01-26T09:34:45.443Z,77.43
2023-01-26T09:35:47.858Z,78.52
2023-01-26T09:36:49.715Z,78.59
2023-01-26T09:37:51.582Z,78.13
2023-01-26T09:38:54.475Z,77.44
2023-01-26T09:39:56.259Z,77.29
2023-01-26T09:41:15.770Z,78.36
2023-01-26T09:42:29.992Z,78.26
2023-01-26T09:43:34.690Z,78.32
2023-01-26T09:44:52.362Z,77.50
2023-01-26T09:46:23.431Z,77.95
2023-01-26T09:47:29.477Z,77.82
2023-01-26T09:48:50.885Z,78.09
2023-01-26T09:50:00.872Z,77.54
2023-01-26T09:51:02.827Z,77.63
2023-01-26T09:52:12.652Z,77.81
2023-01-26T09:53:20.689Z,77.37
2023-01-26T09:54:34.305Z,78.16
2023-01-26T09:55:36.356Z,78.35
2023-01-26T09:56:38.314Z,77.47
2023-01-26T09:57:45.845Z,76.71
2023-01-26T09:58:52.316Z,76.97
2023-01-26T10:00:12.207Z,77.50
2023-01-26T10:01:21.886Z,77.08
2023-01-26T10:02:30.689Z,77.35
2023-01-26T10:03:51.038Z,77.52
2023-01-26T10:04:56.977Z,77.09
2023-01-26T10:06:01.728Z,77.19
2023-01-26T10:07:05.723Z,77.12
2023-01-26T10:08:15.051Z,77.39
2023-01-26T10:09:23.283Z,78.01
2023-01-26T10:10:30.046Z,77.47
2023-01-26T10:11:35.524Z,77.75
2023-01-26T10:12:38.563Z,77.88
2023-01-26T10:13:42.272Z,77.02
2023-01-26T10:14:51.727Z,77.54
2023-01-26T10:16:05.755Z,77.01
2023-01-26T10:17:13.521Z,77.23
2023-01-26T10:18:35.587Z,77.13
2023-01-26T10:19:42.821Z,76.94
2023-01-26T10:20:47.242Z,77.16
2023-01-26T10:21:50.947Z,76.54
2023-01-26T10:22:54.310Z,76.71
2023-01-26T10:23:58.393Z,76.79
2023-01-26T10:25:00.438Z,76.71
2023-01-26T10:26:16.870Z,76.42
2023-01-26T10:27:19.258Z,76.31
2023-01-26T10:28:31.278Z,77.23
2023-01-26T10:29:33.054Z,77.05
2023-01-26T10:30:34.817Z,77.58
2023-01-26T10:31:36.677Z,77.20
2023-01-26T10:32:39.464Z,77.40
2023-01-26T10:33:45.841Z,77.29
2023-01-26T10:34:49.840Z,77.58
2023-01-26T10:35:51.674Z,77.79
2023-01-26T10:36:58.637Z,77.00
2023-01-26T10:38:00.466Z,77.00
2023-01-26T10:39:09.688Z,77.73
2023-01-26T10:40:12.329Z,77.70
2023-01-26T10:41:19.691Z,77.95
2023-01-26T10:42:21.640Z,77.86
2023-01-26T10:43:25.073Z,77.63
2023-01-26T10:44:34.383Z,76.71
2023-01-26T10:45:45.048Z,76.73
2023-01-26T10:46:46.904Z,77.15
2023-01-26T10:48:02.576Z,76.95
2023-01-26T10:49:16.801Z,77.02
2023-01-26T10:50:23.410Z,76.60
2023-01-26T10:51:27.313Z,76.19
2023-01-26T10:52:29.147Z,77.27
2023-01-26T10:53:31.022Z,76.72
2023-01-26T10:54:35.904Z,76.28
2023-01-26T10:55:37.749Z,76.54
2023-01-26T10:56:47.329Z,76.82
2023-01-26T10:57:49.235Z,76.74
2023-01-26T10:58:55.322Z,76.39
2023-01-26T10:59:57.091Z,76.26
2023-01-26T11:00:58.887Z,76.30
2023-01-26T11:02:02.452Z,76.77
2023-01-26T11:03:17.980Z,77.13
2023-01-26T11:04:20.600Z,76.71
2023-01-26T11:05:23.763Z,77.13
2023-01-26T11:06:28.651Z,76.44
2023-01-26T11:07:40.512Z,76.63
2023-01-26T11:08:43.107Z,76.40
2023-01-26T11:09:44.989Z,76.18
2023-01-26T11:10:53.407Z,76.17
2023-01-26T11:12:05.997Z,76.86
2023-01-26T11:13:19.536Z,76.22
2023-01-26T11:14:21.500Z,76.82
2023-01-26T11:15:25.091Z,75.93
2023-01-26T11:16:28.200Z,75.67
2023-01-26T11:17:38.807Z,75.97
2023-01-26T11:18:58.944Z,76.04
2023-01-26T11:20:01.945Z,76.76
2023-01-26T11:21:03.762Z,77.09
2023-01-26T11:22:07.595Z,77.07
2023-01-26T11:23:14.161Z,75.83
2023-01-26T11:24:26.582Z,76.72
2023-01-26T11:25:30.798Z,76.70
2023-01-26T11:26:51.174Z,76.67
2023-01-26T11:28:08.362Z,76.18
2023-01-26T11:29:31.704Z,76.47
2023-01-26T11:30:42.809Z,76.54
2023-01-26T11:31:50.786Z,76.30
2023-01-26T11:33:18.763Z,76.08
2023-01-26T11:34:39.299Z,76.70
2023-01-26T11:35:56.175Z,75.78
2023-01-26T11:36:58.193Z,76.68
2023-01-26T11:38:07.037Z,76.65
2023-01-26T11:39:24.960Z,76.51
2023-01-26T11:40:30.369Z,76.26
2023-01-26T11:41:38.265Z,74.99
2023-01-26T11:42:40.041Z,74.20
2023-01-26T11:43:44.885Z,74.90
2023-01-26T11:45:03.440Z,74.87
2023-01-26T11:46:17.717Z,75.42
2023-01-26T11:47:22.493Z,74.47
2023-01-26T11:48:24.301Z,75.75
2023-01-26T11:49:35.088Z,76.00
2023-01-26T11:50:39.932Z,75.43
2023-01-26T11:51:43.456Z,75.86
2023-01-26T11:52:49.923Z,75.62
2023-01-26T11:54:00.873Z,75.67
2023-01-26T11:55:02.586Z,76.41
2023-01-26T11:56:07.460Z,75.78
2023-01-26T11:57:32.592Z,75.84
2023-01-26T11:58:41.640Z,75.34
2023-01-26T11:59:48.475Z,75.76
2023-01-26T12:00:52.352Z,75.38
2023-01-26T12:02:00.745Z,74.95
2023-01-26T12:03:04.446Z,75.57
2023-01-26T12:04:07.091Z,75.30
2023-01-26T12:05:24.378Z,75.34
2023-01-26T12:06:32.112Z,75.93
2023-01-26T12:07:57.539Z,75.76
2023-01-26T12:09:02.322Z,75.63
2023-01-26T12:10:06.371Z,75.33
2023-01-26T12:11:24.072Z,76.36
2023-01-26T12:12:40.249Z,75.45
2023-01-26T12:13:44.945Z,75.36
2023-01-26T12:14:49.827Z,76.07
2023-01-26T12:15:55.240Z,75.51
2023-01-26T12:17:16.822Z,76.01
2023-01-26T12:18:32.304Z,76.44
2023-01-26T12:19:53.112Z,75.60
2023-01-26T12:21:00.356Z,76.82
2023-01-26T12:22:25.254Z,76.10
2023-01-26T12:23:35.521Z,76.33
2023-01-26T12:25:08.400Z,76.44
2023-01-26T12:26:07.990Z,75.48
2023-01-26T12:27:18.113Z,75.50
2023-01-26T12:28:22.485Z,75.80
2023-01-26T12:29:44.107Z,75.45
2023-01-26T12:30:49.056Z,75.13
2023-01-26T12:32:08.507Z,75.79
2023-01-26T12:33:11.001Z,76.07
2023-01-26T12:34:13.699Z,75.62
2023-01-26T12:35:21.994Z,76.39
2023-01-26T12:36:42.741Z,76.53
2023-01-26T12:37:51.442Z,76.66
2023-01-26T12:39:09.169Z,76.09
2023-01-26T12:40:16.746Z,75.79
2023-01-26T12:41:21.562Z,75.87
2023-01-26T12:42:49.730Z,75.59
2023-01-26T12:43:51.386Z,76.32
2023-01-26T12:45:02.293Z,76.07
2023-01-26T12:46:06.706Z,75.76
2023-01-26T12:47:12.541Z,76.49
2023-01-26T12:48:28.350Z,76.48
2023-01-26T12:49:38.766Z,76.35
2023-01-26T12:50:43.346Z,76.02
2023-01-26T12:51:49.641Z,76.02
2023-01-26T12:52:51.388Z,75.73
2023-01-26T12:54:08.479Z,76.51
2023-01-26T12:55:16.588Z,76.63
2023-01-26T12:56:26.318Z,75.98
2023-01-26T12:57:34.222Z,76.42
2023-01-26T12:58:39.939Z,76.14
2023-01-26T12:59:47.897Z,76.45
2023-01-26T13:00:52.152Z,76.50
2023-01-26T13:01:54.880Z,75.84
2023-01-26T13:03:02.751Z,76.89
2023-01-26T13:04:08.551Z,76.74
2023-01-26T13:05:23.491Z,76.50
2023-01-26T13:06:26.108Z,76.13
2023-01-26T13:07:29.500Z,76.22
2023-01-26T13:08:31.249Z,76.12
2023-01-26T13:09:33.100Z,76.64
2023-01-26T13:10:46.413Z,76.77
2023-01-26T13:11:55.420Z,75.69
2023-01-26T13:12:57.201Z,75.15
2023-01-26T13:13:58.952Z,75.46
2023-01-26T13:15:01.391Z,75.76
2023-01-26T13:16:15.492Z,75.85
2023-01-26T13:17:17.413Z,76.45
2023-01-26T13:18:19.155Z,75.40
2023-01-26T13:19:37.573Z,75.74
2023-01-26T13:20:47.071Z,76.10
2023-01-26T13:21:48.909Z,75.72
2023-01-26T13:22:51.251Z,75.78
2023-01-26T13:23:53.177Z,76.22
2023-01-26T13:24:58.759Z,76.29
2023-01-26T13:26:15.385Z,76.35
2023-01-26T13:27:32.478Z,76.45
2023-01-26T13:28:34.370Z,75.83
2023-01-26T13:29:36.519Z,76.06
2023-01-26T13:30:46.389Z,76.93
2023-01-26T13:31:48.277Z,76.66
2023-01-26T13:32:50.059Z,76.44
2023-01-26T13:33:51.876Z,75.78
2023-01-26T13:34:57.751Z,76.02
2023-01-26T13:36:02.739Z,76.82
2023-01-26T13:37:24.812Z,76.32
2023-01-26T13:38:34.160Z,76.01
2023-01-26T13:39:37.416Z,76.31
2023-01-26T13:40:50.619Z,76.22
2023-01-26T13:41:53.387Z,76.55
2023-01-26T13:43:25.686Z,76.49
2023-01-26T13:44:51.756Z,76.88
2023-01-26T13:46:12.470Z,76.53
2023-01-26T13:47:25.240Z,77.12
2023-01-26T13:48:35.003Z,77.30
2023-01-26T13:49:38.571Z,77.23
2023-01-26T13:50:41.104Z,76.28
2023-01-26T13:51:43.596Z,77.34
2023-01-26T13:52:45.382Z,77.36
2023-01-26T13:53:55.443Z,76.36
2023-01-26T13:55:02.261Z,77.41
2023-01-26T13:56:06.141Z,77.17
2023-01-26T13:57:08.004Z,77.34
2023-01-26T13:58:17.722Z,76.65
2023-01-26T13:59:21.062Z,76.87
2023-01-26T14:00:22.849Z,77.22